Time;durP1;ratioP1;P1;durP2;ratioP2;P2;SDS_P1;SDS_P2;PMS_P1;PMS_P2;Temp;Humidity;BMP_temperature;BMP_pressure;BME280_temperature;BME280_humidity;BME280_pressure;Samples;Min_cycle;Max_cycle;Signal;HPM_P1;HPM_P2
2023/04/07 00:02:13;;;;;;;12.30;7.70;;;7.40;99.90;;;;;;7404465;19;19925;-73
2023/04/07 00:04:42;;;;;;;11.65;7.20;;;7.50;99.90;;;;;;7404179;19;19919;-73
2023/04/07 00:07:11;;;;;;;14.40;7.93;;;7.50;99.90;;;;;;7402097;19;19923;-72
2023/04/07 00:09:46;;;;;;;12.93;7.93;;;7.40;99.90;;;;;;7400916;19;19915;-74
2023/04/07 00:12:15;;;;;;;;;;;7.40;99.90;;;;;;7405898;19;19926;-74
2023/04/07 00:14:53;;;;;;;11.48;7.07;;;7.50;99.90;;;;;;7399954;19;19918;-74
2023/04/07 00:17:22;;;;;;;11.02;7.03;;;7.50;99.90;;;;;;7403057;19;19937;-73
2023/04/07 00:19:51;;;;;;;11.60;7.13;;;8.60;99.90;;;;;;7401121;19;19934;-74
2023/04/07 00:22:21;;;;;;;10.40;7.05;;;8.00;99.90;;;;;;7399101;19;19930;-74
2023/04/07 00:24:53;;;;;;;10.50;6.45;;;7.50;99.90;;;;;;7402671;19;19940;-74
2023/04/07 00:27:22;;;;;;;12.15;7.32;;;7.50;99.90;;;;;;7399615;19;20282;-74
2023/04/07 00:29:54;;;;;;;10.63;6.65;;;7.40;99.90;;;;;;7402224;19;19946;-74
2023/04/07 00:32:24;;;;;;;11.50;6.90;;;7.40;99.90;;;;;;7400402;19;19915;-72
2023/04/07 00:34:53;;;;;;;11.82;7.00;;;7.40;99.90;;;;;;7400203;19;19977;-74
2023/04/07 00:37:22;;;;;;;11.25;6.90;;;7.80;99.90;;;;;;7396801;19;19922;-74
2023/04/07 00:39:56;;;;;;;12.00;7.47;;;7.30;99.90;;;;;;7398948;19;20334;-74
2023/04/07 00:42:25;;;;;;;10.85;7.07;;;7.40;99.90;;;;;;7401586;19;19950;-74
2023/04/07 00:44:54;;;;;;;10.32;6.43;;;7.40;99.90;;;;;;7402636;19;19994;-74
2023/04/07 00:47:23;;;;;;;10.25;6.78;;;7.40;99.90;;;;;;7401637;19;19922;-74
2023/04/07 00:49:52;;;;;;;10.43;6.32;;;7.40;99.90;;;;;;7399475;19;19957;-74
2023/04/07 00:52:26;;;;;;;10.65;6.55;;;7.80;99.90;;;;;;7403846;19;19923;-74
2023/04/07 00:55:00;;;;;;;11.45;6.63;;;7.40;99.90;;;;;;7398992;19;20356;-74
2023/04/07 00:57:29;;;;;;;9.25;6.53;;;7.60;99.90;;;;;;7399252;19;19922;-74
2023/04/07 01:00:00;;;;;;;11.68;6.47;;;7.40;99.90;;;;;;7401231;19;19977;-74
2023/04/07 01:02:35;;;;;;;10.68;6.80;;;7.40;99.90;;;;;;7403053;19;19982;-72
2023/04/07 01:05:14;;;;;;;9.75;6.45;;;7.70;99.90;;;;;;7402546;19;19915;-73
2023/04/07 01:07:57;;;;;;;10.68;6.70;;;7.40;99.90;;;;;;7399147;19;19931;-72
2023/04/07 01:10:42;;;;;;;9.25;6.03;;;7.30;99.90;;;;;;7402776;19;19949;-72
2023/04/07 01:13:23;;;;;;;11.80;6.47;;;7.40;99.90;;;;;;7400465;19;20551;-72
2023/04/07 01:15:55;;;;;;;10.35;6.65;;;7.40;99.90;;;;;;7401657;19;20268;-72
2023/04/07 01:18:33;;;;;;;12.10;6.57;;;7.40;99.90;;;;;;7400690;19;19926;-72
2023/04/07 01:21:06;;;;;;;12.05;6.88;;;7.40;99.90;;;;;;7401539;19;19929;-72
2023/04/07 01:23:54;;;;;;;10.23;6.55;;;7.50;99.90;;;;;;7399509;19;19930;-72
2023/04/07 01:26:28;;;;;;;11.25;6.88;;;7.40;99.90;;;;;;7400443;19;19919;-72
2023/04/07 01:29:30;;;;;;;10.55;6.72;;;7.90;99.90;;;;;;7409569;19;19929;-72
2023/04/07 01:32:06;;;;;;;12.25;6.75;;;7.30;99.90;;;;;;7404365;19;19918;-73
2023/04/07 01:34:42;;;;;;;10.95;7.25;;;7.30;99.90;;;;;;7408176;19;19919;-73
2023/04/07 01:37:12;;;;;;;11.93;7.20;;;7.30;99.90;;;;;;7407429;19;20349;-72
2023/04/07 01:39:42;;;;;;;10.05;6.30;;;7.40;99.90;;;;;;7408862;19;19986;-73
2023/04/07 01:42:28;;;;;;;10.57;6.68;;;7.40;99.90;;;;;;7405275;19;19919;-73
2023/04/07 01:44:59;;;;;;;9.85;6.80;;;8.60;99.90;;;;;;7408202;19;19918;-73
2023/04/07 01:47:32;;;;;;;10.88;7.28;;;7.50;99.90;;;;;;7405165;19;19971;-72
2023/04/07 01:50:03;;;;;;;11.90;6.90;;;7.30;99.90;;;;;;7409800;19;19922;-72
2023/04/07 01:52:32;;;;;;;11.23;6.82;;;7.40;99.90;;;;;;7406379;19;19911;-72
2023/04/07 01:55:02;;;;;;;9.82;6.65;;;7.40;99.90;;;;;;7406427;19;20463;-72
2023/04/07 01:57:50;;;;;;;12.50;6.90;;;7.50;99.90;;;;;;7404017;19;19929;-72
2023/04/07 02:00:24;;;;;;;11.68;6.88;;;7.40;99.90;;;;;;7407261;19;19922;-72
2023/04/07 02:03:03;;;;;;;9.20;6.55;;;7.40;99.90;;;;;;7404084;19;20289;-72
2023/04/07 02:05:37;;;;;;;12.68;7.82;;;7.40;99.90;;;;;;7403672;19;19918;-72
2023/04/07 02:08:09;;;;;;;11.07;7.25;;;7.50;99.90;;;;;;7403736;19;20323;-72
2023/04/07 02:10:40;;;;;;;13.70;7.45;;;7.50;99.90;;;;;;7405866;19;19986;-72
2023/04/07 02:13:12;;;;;;;11.45;7.43;;;7.40;99.90;;;;;;7404210;19;19922;-72
2023/04/07 02:15:44;;;;;;;11.70;7.20;;;7.40;99.90;;;;;;7405080;19;19918;-72
2023/04/07 02:18:17;;;;;;;11.63;6.70;;;7.60;99.90;;;;;;7406645;19;19922;-72
2023/04/07 02:20:50;;;;;;;13.07;7.25;;;7.50;99.90;;;;;;7403478;19;20490;-74
2023/04/07 02:23:19;;;;;;;13.13;7.20;;;7.40;99.90;;;;;;7403191;19;19919;-72
2023/04/07 02:25:49;;;;;;;11.45;7.47;;;7.80;99.90;;;;;;7403502;19;19918;-72
2023/04/07 02:28:19;;;;;;;13.07;7.85;;;7.40;99.90;;;;;;7402680;19;19926;-72
2023/04/07 02:30:48;;;;;;;11.25;7.30;;;7.50;99.90;;;;;;7403152;19;19915;-73
2023/04/07 02:33:20;;;;;;;14.45;7.97;;;7.40;99.90;;;;;;7403783;19;19922;-73
2023/04/07 02:35:50;;;;;;;13.80;8.10;;;7.60;99.90;;;;;;7401715;19;19921;-73
2023/04/07 02:38:19;;;;;;;10.40;7.32;;;7.40;99.90;;;;;;7405230;19;19922;-72
2023/04/07 02:40:48;;;;;;;11.23;7.10;;;7.40;99.90;;;;;;7403480;19;19941;-72
2023/04/07 02:43:18;;;;;;;12.85;7.32;;;7.40;99.90;;;;;;7402703;19;19923;-73
2023/04/07 02:45:47;;;;;;;11.25;7.20;;;7.40;99.90;;;;;;7405051;19;19923;-73
2023/04/07 02:48:16;;;;;;;11.40;7.18;;;7.50;99.90;;;;;;7402597;19;19930;-73
2023/04/07 02:50:54;;;;;;;11.95;7.65;;;7.40;99.90;;;;;;7403753;19;20025;-72
2023/04/07 02:53:27;;;;;;;10.57;6.45;;;8.30;99.90;;;;;;7402180;19;19962;-73
2023/04/07 02:55:56;;;;;;;11.52;7.15;;;7.30;99.90;;;;;;7402258;19;20260;-73
2023/04/07 02:58:25;;;;;;;13.45;8.13;;;7.40;99.90;;;;;;7402821;19;20326;-73
2023/04/07 03:00:54;;;;;;;13.10;7.80;;;7.30;99.90;;;;;;7405785;19;19926;-73
2023/04/07 03:03:23;;;;;;;13.50;7.38;;;8.10;99.90;;;;;;7405855;19;20266;-73
2023/04/07 03:05:55;;;;;;;11.00;7.20;;;7.20;99.90;;;;;;7405803;19;19918;-72
2023/04/07 03:08:35;;;;;;;11.15;7.38;;;7.30;99.90;;;;;;7402597;19;19919;-73
2023/04/07 03:11:18;;;;;;;10.05;7.13;;;7.30;99.90;;;;;;7401338;19;19926;-72
2023/04/07 03:13:47;;;;;;;13.38;7.55;;;7.30;99.90;;;;;;7403096;19;19929;-72
2023/04/07 03:16:16;;;;;;;11.80;7.18;;;7.40;99.90;;;;;;7402136;19;19918;-73
2023/04/07 03:18:45;;;;;;;11.65;7.50;;;7.30;99.90;;;;;;7403625;19;19975;-73
2023/04/07 03:21:17;;;;;;;11.63;7.45;;;7.20;99.90;;;;;;7399597;19;19918;-73
2023/04/07 03:23:46;;;;;;;;;;;7.40;99.90;;;;;;7405978;19;19923;-73
2023/04/07 03:26:17;;;;;;;13.38;6.82;;;8.00;99.90;;;;;;7403566;19;20013;-73
2023/04/07 03:28:46;;;;;;;10.73;6.97;;;7.30;99.90;;;;;;7400713;19;19929;-73
2023/04/07 03:31:17;;;;;;;13.30;7.93;;;7.30;99.90;;;;;;7402185;19;19938;-72
2023/04/07 03:33:46;;;;;;;11.98;7.50;;;7.40;99.90;;;;;;7402687;19;19925;-73
2023/04/07 03:36:19;;;;;;;10.82;6.85;;;7.30;99.90;;;;;;7401948;19;19978;-73
2023/04/07 03:38:56;;;;;;;11.18;6.82;;;7.20;99.90;;;;;;7404063;19;19922;-73
2023/04/07 03:41:30;;;;;;;11.85;7.93;;;7.20;99.90;;;;;;7404681;19;19926;-73
2023/04/07 03:43:59;;;;;;;12.15;7.30;;;7.90;99.90;;;;;;7402385;19;19927;-73
2023/04/07 03:46:28;;;;;;;10.77;7.13;;;7.20;99.90;;;;;;7401189;19;20246;-73
2023/04/07 03:48:57;;;;;;;12.50;7.35;;;7.30;99.90;;;;;;7396918;19;19918;-73
2023/04/07 03:51:29;;;;;;;14.55;8.25;;;7.20;99.90;;;;;;7401329;19;19918;-73
2023/04/07 03:53:58;;;;;;;13.02;8.55;;;7.20;99.90;;;;;;7403879;19;19978;-73
2023/04/07 03:56:27;;;;;;;11.80;7.78;;;7.20;99.90;;;;;;7400743;19;19935;-72
2023/04/07 03:58:56;;;;;;;12.50;7.78;;;7.20;99.90;;;;;;7403064;19;20275;-72
2023/04/07 04:01:25;;;;;;;11.73;7.93;;;7.20;99.90;;;;;;7400757;19;19921;-72
2023/04/07 04:03:55;;;;;;;15.48;8.00;;;7.20;99.90;;;;;;7400371;19;19935;-73
2023/04/07 04:06:25;;;;;;;13.38;7.55;;;7.10;99.90;;;;;;7400888;19;19990;-72
2023/04/07 04:08:57;;;;;;;13.55;7.93;;;7.20;99.90;;;;;;7399362;19;20279;-71
2023/04/07 04:11:26;;;;;;;12.25;7.20;;;7.20;99.90;;;;;;7403315;19;19918;-72
2023/04/07 04:13:55;;;;;;;12.38;7.18;;;7.10;99.90;;;;;;7400364;19;20344;-73
2023/04/07 04:16:24;;;;;;;12.02;7.90;;;7.10;99.90;;;;;;7403643;19;19922;-72
2023/04/07 04:18:53;;;;;;;17.38;8.18;;;7.30;99.90;;;;;;7400673;19;19939;-73
2023/04/07 04:21:30;;;;;;;14.55;8.50;;;7.20;99.90;;;;;;7400134;19;19982;-73
2023/04/07 04:24:02;;;;;;;14.70;8.68;;;7.10;99.90;;;;;;7400211;19;19919;-72
2023/04/07 04:26:31;;;;;;;;;;;7.10;99.90;;;;;;7404035;19;19925;-72
2023/04/07 04:29:01;;;;;;;12.43;7.75;;;7.10;99.90;;;;;;7403737;19;19982;-72
2023/04/07 04:31:30;;;;;;;14.90;8.30;;;7.10;99.90;;;;;;7400706;19;19925;-72
2023/04/07 04:33:59;;;;;;;13.77;8.55;;;7.10;99.90;;;;;;7402698;19;19922;-72
2023/04/07 04:36:30;;;;;;;13.48;7.95;;;7.10;99.90;;;;;;7400502;19;19910;-72
2023/04/07 04:39:01;;;;;;;14.10;8.40;;;7.10;99.90;;;;;;7400450;19;19933;-72
2023/04/07 04:41:34;;;;;;;13.77;8.52;;;7.10;99.90;;;;;;7400131;19;19922;-72
2023/04/07 04:44:03;;;;;;;14.60;9.07;;;7.00;99.90;;;;;;7400147;19;19926;-71
2023/04/07 04:46:33;;;;;;;18.35;9.50;;;7.60;99.90;;;;;;7400909;19;19918;-72
2023/04/07 04:49:02;;;;;;;15.32;8.80;;;7.10;99.90;;;;;;7399687;19;19926;-72
2023/04/07 04:51:30;;;;;;;14.50;8.40;;;7.10;99.90;;;;;;7401420;19;20341;-72
2023/04/07 04:54:07;;;;;;;15.48;8.90;;;7.10;99.90;;;;;;7399292;19;19918;-72
2023/04/07 04:56:36;;;;;;;13.93;8.38;;;7.00;99.90;;;;;;7402446;19;19914;-73
2023/04/07 04:59:05;;;;;;;12.70;8.52;;;7.00;99.90;;;;;;7399265;19;19929;-72
2023/04/07 05:01:34;;;;;;;16.92;8.85;;;7.00;99.90;;;;;;7400623;19;19929;-73
2023/04/07 05:04:03;;;;;;;16.00;8.80;;;7.80;99.90;;;;;;7401346;19;19918;-73
2023/04/07 05:06:33;;;;;;;13.85;8.70;;;7.10;99.90;;;;;;7402306;19;19910;-73
2023/04/07 05:09:05;;;;;;;15.15;8.95;;;7.10;99.90;;;;;;7398213;19;20577;-72
2023/04/07 05:11:34;;;;;;;;;;;7.20;99.90;;;;;;7401247;19;19926;-73
2023/04/07 05:14:03;;;;;;;15.00;8.57;;;7.10;99.90;;;;;;7401316;19;20364;-72
2023/04/07 05:16:32;;;;;;;17.35;10.30;;;7.20;99.90;;;;;;7399894;19;19926;-72
2023/04/07 05:19:01;;;;;;;14.93;8.63;;;7.70;99.90;;;;;;7401179;19;19933;-72
2023/04/07 05:21:30;;;;;;;13.35;8.88;;;7.30;99.90;;;;;;7398437;19;19911;-73
2023/04/07 05:23:59;;;;;;;14.35;9.23;;;7.40;99.90;;;;;;7400515;19;20333;-73
2023/04/07 05:26:31;;;;;;;15.45;9.75;;;7.10;99.90;;;;;;7398977;19;19964;-73
2023/04/07 05:29:00;;;;;;;15.50;8.50;;;7.20;99.90;;;;;;7398620;19;19921;-73
2023/04/07 05:31:32;;;;;;;16.00;10.02;;;7.60;99.90;;;;;;7398510;19;19932;-74
2023/04/07 05:34:01;;;;;;;14.70;9.63;;;7.10;99.90;;;;;;7398698;19;19923;-73
2023/04/07 05:36:31;;;;;;;18.13;9.80;;;7.10;99.90;;;;;;7400114;19;19910;-73
2023/04/07 05:39:00;;;;;;;17.60;10.05;;;7.10;99.90;;;;;;7401102;19;19918;-73
2023/04/07 05:41:31;;;;;;;15.45;9.02;;;7.20;99.90;;;;;;7399742;19;19989;-73
2023/04/07 05:44:00;;;;;;;17.65;9.70;;;7.10;99.90;;;;;;7397847;19;19921;-73
2023/04/07 05:46:29;;;;;;;16.15;9.88;;;7.30;99.90;;;;;;7399240;19;20336;-73
2023/04/07 05:48:58;;;;;;;14.45;8.93;;;7.10;99.90;;;;;;7396590;19;19915;-73
2023/04/07 05:51:28;;;;;;;14.77;9.32;;;7.30;99.90;;;;;;7397831;19;19994;-73
2023/04/07 05:53:57;;;;;;;16.50;9.35;;;7.30;99.90;;;;;;7401317;19;19930;-73
2023/04/07 05:56:26;;;;;;;17.33;9.52;;;7.30;99.90;;;;;;7397789;19;19931;-73
2023/04/07 05:58:59;;;;;;;14.93;9.88;;;7.50;99.90;;;;;;7397541;19;19918;-73
2023/04/07 06:01:28;;;;;;;16.02;9.90;;;7.20;99.90;;;;;;7397969;19;19922;-73
2023/04/07 06:04:02;;;;;;;14.80;9.38;;;7.30;99.90;;;;;;7397395;19;20357;-73
2023/04/07 06:06:31;;;;;;;18.65;10.88;;;7.30;99.90;;;;;;7397056;19;19918;-72
2023/04/07 06:09:00;;;;;;;16.63;10.95;;;7.30;99.90;;;;;;7396992;19;20548;-72
2023/04/07 06:11:30;;;;;;;19.02;9.80;;;8.60;99.90;;;;;;7398226;19;19930;-72
2023/04/07 06:14:11;;;;;;;;;;;7.60;99.90;;;;;;7408523;19;19918;-72
2023/04/07 06:16:56;;;;;;;16.33;9.63;;;7.40;99.90;;;;;;7403180;19;19923;-72
2023/04/07 06:19:26;;;;;;;19.27;10.57;;;7.80;99.90;;;;;;7407631;19;20336;-72
2023/04/07 06:21:56;;;;;;;18.20;10.38;;;7.60;99.90;;;;;;7403336;19;19930;-72
2023/04/07 06:24:24;;;;;;;17.40;10.13;;;7.50;99.90;;;;;;7403252;19;19926;-73
2023/04/07 06:26:57;;;;;;;17.45;9.95;;;7.70;99.90;;;;;;7406537;19;19950;-73
2023/04/07 06:29:29;;;;;;;17.92;10.57;;;7.50;99.90;;;;;;7405248;19;19922;-73
2023/04/07 06:31:58;;;;;;;18.48;11.02;;;7.50;99.90;;;;;;7406040;19;19919;-73
2023/04/07 06:34:27;;;;;;;16.50;10.32;;;7.60;99.90;;;;;;7405832;19;19951;-72
2023/04/07 06:37:08;;;;;;;16.58;10.32;;;7.60;99.90;;;;;;7405956;19;20345;-72
2023/04/07 06:39:57;;;;;;;20.83;11.15;;;7.50;99.90;;;;;;7403812;19;19926;-73
2023/04/07 06:42:46;;;;;;;20.05;11.35;;;7.60;99.90;;;;;;7404659;19;19918;-72
2023/04/07 06:45:17;;;;;;;22.30;12.60;;;8.70;99.90;;;;;;7402899;19;19919;-72
2023/04/07 06:47:47;;;;;;;18.83;12.43;;;7.70;99.90;;;;;;7403239;19;19922;-72
2023/04/07 06:50:19;;;;;;;23.08;13.15;;;7.80;99.90;;;;;;7402511;19;19926;-72
2023/04/07 06:52:48;;;;;;;21.23;12.55;;;7.80;99.90;;;;;;7402678;19;19915;-72
2023/04/07 06:55:21;;;;;;;22.00;12.63;;;7.90;99.90;;;;;;7402294;19;19932;-72
2023/04/07 06:57:54;;;;;;;21.42;12.55;;;7.80;99.90;;;;;;7402753;19;19918;-72
2023/04/07 07:00:29;;;;;;;23.27;13.07;;;7.80;99.90;;;;;;7404627;19;19926;-72
2023/04/07 07:02:58;;;;;;;24.98;13.30;;;8.00;99.90;;;;;;7402949;19;19934;-72
2023/04/07 07:05:27;;;;;;;23.15;12.63;;;7.90;99.90;;;;;;7402044;19;19921;-72
2023/04/07 07:07:56;;;;;;;22.52;13.45;;;8.60;99.90;;;;;;7401685;19;19947;-72
2023/04/07 07:10:38;;;;;;;20.15;11.75;;;8.00;99.90;;;;;;7399758;19;19950;-72
2023/04/07 07:13:16;;;;;;;20.80;12.82;;;8.00;99.90;;;;;;7402894;19;20273;-72
2023/04/07 07:15:49;;;;;;;21.88;12.95;;;8.10;99.90;;;;;;7403523;19;19939;-72
2023/04/07 07:18:19;;;;;;;20.33;12.23;;;8.20;99.90;;;;;;7405576;19;19919;-72
2023/04/07 07:20:49;;;;;;;21.05;12.10;;;8.20;99.90;;;;;;7401986;19;19914;-73
2023/04/07 07:23:30;;;;;;;21.98;12.23;;;8.10;99.90;;;;;;7399009;19;20018;-72
2023/04/07 07:26:02;;;;;;;19.42;11.98;;;8.10;99.90;;;;;;7402207;19;19919;-72
2023/04/07 07:28:32;;;;;;;22.30;11.90;;;8.10;99.90;;;;;;7400894;19;19928;-72
2023/04/07 07:31:11;;;;;;;21.23;12.13;;;8.10;99.90;;;;;;7398096;19;19918;-74
2023/04/07 07:33:42;;;;;;;19.80;11.63;;;8.20;99.90;;;;;;7398138;19;19923;-74
2023/04/07 07:36:11;;;;;;;19.67;11.15;;;8.20;99.90;;;;;;7400647;19;19922;-73
2023/04/07 07:38:42;;;;;;;21.10;10.85;;;8.40;99.90;;;;;;7398749;19;19926;-73
2023/04/07 07:41:11;;;;;;;21.98;10.95;;;8.30;99.90;;;;;;7401203;19;19989;-73
2023/04/07 07:43:40;;;;;;;18.17;11.35;;;8.40;99.90;;;;;;7399170;19;19923;-74
2023/04/07 07:46:12;;;;;;;17.80;10.60;;;8.30;99.90;;;;;;7399464;19;19937;-73
2023/04/07 07:48:58;;;;;;;18.25;9.90;;;8.40;99.90;;;;;;7399826;19;19925;-74
2023/04/07 07:51:27;;;;;;;15.80;10.32;;;8.40;99.90;;;;;;7398070;19;19911;-74
2023/04/07 07:53:56;;;;;;;19.70;10.13;;;8.30;99.90;;;;;;7392839;19;19933;-74
2023/04/07 07:56:26;;;;;;;17.77;9.93;;;8.40;99.90;;;;;;7400783;19;19922;-73
2023/04/07 07:58:55;;;;;;;16.15;10.00;;;8.30;99.90;;;;;;7396874;19;19919;-74
2023/04/07 08:01:27;;;;;;;16.20;10.05;;;8.50;99.90;;;;;;7396599;19;20337;-74
2023/04/07 08:03:56;;;;;;;15.75;9.20;;;8.40;99.90;;;;;;7397550;19;20022;-73
2023/04/07 08:06:26;;;;;;;16.80;10.23;;;10.50;99.90;;;;;;7399835;19;19922;-74
2023/04/07 08:09:15;;;;;;;15.23;9.18;;;8.50;99.90;;;;;;7396112;19;20363;-74
2023/04/07 08:12:04;;;;;;;16.25;9.50;;;8.50;99.90;;;;;;7393968;19;19922;-73
2023/04/07 08:14:53;;;;;;;16.58;9.82;;;8.60;99.90;;;;;;7397197;19;19923;-73
2023/04/07 08:17:25;;;;;;;13.82;8.55;;;8.60;99.90;;;;;;7394791;19;19930;-73
2023/04/07 08:19:54;;;;;;;17.35;9.13;;;8.70;99.90;;;;;;7388122;19;19922;-73
2023/04/07 08:22:23;;;;;;;15.43;8.75;;;7.60;99.90;;;;;;7381839;19;20279;-74
2023/04/07 08:24:57;;;;;;;15.70;8.75;;;8.80;99.90;;;;;;7352688;19;19926;-74
2023/04/07 08:27:26;;;;;;;15.32;8.73;;;8.70;99.90;;;;;;7393995;19;19922;-74
2023/04/07 08:30:01;;;;;;;14.75;9.05;;;8.80;99.90;;;;;;7390521;19;19922;-74
2023/04/07 08:32:39;;;;;;;11.25;7.53;;;8.80;99.90;;;;;;7383724;19;19918;-73
2023/04/07 08:35:08;;;;;;;14.25;8.20;;;9.00;99.90;;;;;;7386854;19;19918;-74
2023/04/07 08:37:38;;;;;;;13.48;8.00;;;8.80;99.90;;;;;;7392719;19;19958;-73
2023/04/07 08:40:09;;;;;;;11.88;7.22;;;8.80;99.90;;;;;;7394513;19;19922;-73
2023/04/07 08:42:43;;;;;;;14.55;8.10;;;8.80;99.90;;;;;;7393089;19;19922;-73
2023/04/07 08:45:12;;;;;;;13.50;8.60;;;8.90;99.90;;;;;;7392452;19;19974;-74
2023/04/07 08:47:45;;;;;;;12.48;8.07;;;8.80;99.90;;;;;;7392247;19;19936;-73
2023/04/07 08:50:18;;;;;;;13.95;8.10;;;9.00;99.90;;;;;;7383014;19;20402;-73
2023/04/07 08:52:49;;;;;;;12.95;7.85;;;9.20;99.90;;;;;;7391284;19;19926;-73
2023/04/07 08:55:18;;;;;;;11.77;7.82;;;9.10;99.90;;;;;;7393602;19;19923;-73
2023/04/07 08:57:48;;;;;;;15.57;8.30;;;9.00;99.90;;;;;;7392588;19;19922;-73
2023/04/07 09:00:17;;;;;;;14.77;7.97;;;9.10;99.90;;;;;;7392514;19;19918;-73
2023/04/07 09:02:50;;;;;;;12.93;7.35;;;9.10;99.90;;;;;;7390238;19;19914;-73
2023/04/07 09:05:20;;;;;;;12.63;7.68;;;9.20;99.90;;;;;;7383418;19;20006;-73
2023/04/07 09:07:49;;;;;;;12.88;8.43;;;9.20;99.90;;;;;;7383752;19;19922;-73
2023/04/07 09:10:18;;;;;;;14.20;7.18;;;9.30;99.90;;;;;;7370492;19;20099;-73
2023/04/07 09:12:47;;;;;;;11.10;6.80;;;9.30;99.90;;;;;;7397929;19;20379;-73
2023/04/07 09:15:16;;;;;;;12.65;7.10;;;9.30;99.90;;;;;;7387971;19;19930;-73
2023/04/07 09:17:45;;;;;;;11.52;7.03;;;9.50;99.90;;;;;;7391050;19;20269;-73
2023/04/07 09:20:17;;;;;;;11.35;7.22;;;9.50;99.90;;;;;;7388376;19;19922;-73
2023/04/07 09:22:47;;;;;;;10.55;6.30;;;9.70;99.90;;;;;;7388334;19;19923;-74
2023/04/07 09:25:17;;;;;;;11.95;6.63;;;9.60;99.90;;;;;;7391267;19;19946;-73
2023/04/07 09:28:00;;;;;;;10.30;6.32;;;9.80;99.90;;;;;;7394198;19;19922;-74
2023/04/07 09:30:30;;;;;;;9.48;6.35;;;9.90;99.90;;;;;;7391850;19;20985;-73
2023/04/07 09:33:01;;;;;;;10.27;6.40;;;9.90;99.90;;;;;;7392408;19;19947;-73
2023/04/07 09:35:34;;;;;;;12.63;6.63;;;10.00;99.90;;;;;;7372281;19;19966;-73
2023/04/07 09:38:05;;;;;;;10.43;6.22;;;10.10;99.90;;;;;;7392683;19;20336;-73
2023/04/07 09:40:35;;;;;;;10.43;6.68;;;10.10;99.90;;;;;;7389735;19;20633;-72
2023/04/07 09:43:06;;;;;;;12.93;6.28;;;10.10;99.90;;;;;;7393653;19;19934;-72
2023/04/07 09:45:35;;;;;;;11.40;6.18;;;10.00;99.90;;;;;;7391856;19;19927;-72
2023/04/07 09:48:08;;;;;;;9.82;6.35;;;10.20;99.90;;;;;;7398173;19;20005;-72
2023/04/07 09:50:44;;;;;;;9.82;5.88;;;10.10;99.90;;;;;;7396531;19;19918;-72
2023/04/07 09:53:13;;;;;;;8.55;5.53;;;10.00;99.90;;;;;;7401704;19;19926;-72
2023/04/07 09:55:43;;;;;;;6.93;4.38;;;10.10;99.90;;;;;;7397487;19;19933;-74
2023/04/07 09:58:15;;;;;;;7.10;4.65;;;9.90;99.90;;;;;;7400153;19;19918;-73
2023/04/07 10:01:05;;;;;;;8.18;4.55;;;10.10;99.90;;;;;;7394579;19;19929;-73
2023/04/07 10:03:35;;;;;;;9.18;5.38;;;10.20;99.90;;;;;;7394897;19;19930;-72
2023/04/07 10:06:08;;;;;;;9.52;5.28;;;10.40;99.90;;;;;;7392714;19;19922;-72
2023/04/07 10:08:39;;;;;;;8.63;5.13;;;10.70;99.90;;;;;;7406949;19;20336;-73
2023/04/07 10:11:08;;;;;;;6.95;5.00;;;10.70;99.90;;;;;;7398649;19;19930;-73
2023/04/07 10:13:39;;;;;;;9.38;5.88;;;10.80;99.90;;;;;;7406945;19;19925;-73
2023/04/07 10:16:09;;;;;;;8.00;5.07;;;10.90;99.90;;;;;;7403388;19;19935;-73
2023/04/07 10:18:39;;;;;;;8.30;5.43;;;11.10;99.90;;;;;;7406971;19;19951;-73
2023/04/07 10:21:14;;;;;;;7.78;5.65;;;11.30;99.90;;;;;;7402319;19;19937;-73
2023/04/07 10:23:53;;;;;;;10.32;6.07;;;11.30;99.90;;;;;;7402675;19;19915;-74
2023/04/07 10:26:28;;;;;;;9.50;5.85;;;11.40;99.90;;;;;;7404180;19;19923;-73
2023/04/07 10:29:02;;;;;;;8.30;5.57;;;11.60;99.90;;;;;;7405830;19;19926;-73
2023/04/07 10:31:31;;;;;;;9.73;6.00;;;11.60;99.90;;;;;;7402558;19;19961;-73
2023/04/07 10:34:01;;;;;;;9.60;6.03;;;11.90;99.90;;;;;;7405135;19;19996;-73
2023/04/07 10:36:33;;;;;;;7.88;5.75;;;11.80;99.90;;;;;;7389515;19;19933;-72
2023/04/07 10:39:23;;;;;;;8.65;5.68;;;12.00;99.90;;;;;;7372834;19;19923;-73
2023/04/07 10:41:56;;;;;;;9.15;5.88;;;12.10;99.90;;;;;;7394923;19;20220;-73
2023/04/07 10:44:48;;;;;;;7.82;5.38;;;12.00;99.90;;;;;;7397182;19;19931;-73
2023/04/07 10:47:29;;;;;;;7.88;5.72;;;11.80;99.90;;;;;;7394056;19;19918;-72
2023/04/07 10:50:18;;;;;;;10.95;5.70;;;12.00;99.90;;;;;;7395602;19;19923;-73
2023/04/07 10:52:51;;;;;;;11.63;6.72;;;12.00;99.90;;;;;;7393455;19;19958;-72
2023/04/07 10:55:31;;;;;;;10.70;6.35;;;12.20;99.90;;;;;;7395069;19;19922;-73
2023/04/07 10:58:27;;;;;;;9.18;5.95;;;12.30;99.90;;;;;;7393959;19;19922;-73
2023/04/07 11:01:19;;;;;;;9.73;6.03;;;12.50;99.90;;;;;;7390709;19;19933;-72
2023/04/07 11:04:03;;;;;;;11.40;6.20;;;12.60;99.90;;;;;;7396708;19;19926;-73
2023/04/07 11:06:33;;;;;;;9.43;6.18;;;12.80;99.90;;;;;;7394122;19;19996;-72
2023/04/07 11:09:04;;;;;;;9.27;6.47;;;13.00;99.90;;;;;;7392319;19;19926;-72
2023/04/07 11:11:50;;;;;;;10.43;6.40;;;13.10;99.90;;;;;;7393219;19;19936;-72
2023/04/07 11:14:28;;;;;;;11.57;6.10;;;13.20;99.90;;;;;;7394930;19;20292;-72
2023/04/07 11:16:57;;;;;;;10.77;5.68;;;13.50;99.90;;;;;;7396392;19;19922;-73
2023/04/07 11:19:26;;;;;;;7.80;5.30;;;13.40;99.90;;;;;;7394589;19;19929;-73
2023/04/07 11:22:15;;;;;;;7.70;5.57;;;13.50;99.90;;;;;;7389288;19;19922;-73
2023/04/07 11:24:48;;;;;;;9.05;5.95;;;13.30;99.90;;;;;;7392440;19;19938;-73
2023/04/07 11:27:18;;;;;;;6.88;5.47;;;13.30;99.90;;;;;;7401156;19;19978;-73
2023/04/07 11:29:47;;;;;;;7.30;5.53;;;13.40;99.90;;;;;;7402171;19;19922;-74
2023/04/07 11:32:17;;;;;;;7.55;5.93;;;13.30;99.90;;;;;;7401730;19;19922;-73
2023/04/07 11:34:46;;;;;;;11.88;6.28;;;13.30;99.90;;;;;;7403598;19;19937;-73
2023/04/07 11:37:22;;;;;;;9.25;5.38;;;13.30;99.90;;;;;;7397047;19;19930;-74
2023/04/07 11:40:11;;;;;;;9.13;6.10;;;13.10;99.90;;;;;;7399680;19;19929;-73
2023/04/07 11:42:45;;;;;;;8.68;5.60;;;13.10;99.90;;;;;;7391876;19;20375;-71
2023/04/07 11:45:19;;;;;;;9.00;5.90;;;13.10;99.90;;;;;;7400710;19;19922;-71
2023/04/07 11:47:49;;;;;;;8.70;6.65;;;13.10;99.90;;;;;;7402352;19;19914;-72
2023/04/07 11:50:18;;;;;;;8.90;6.43;;;13.00;99.90;;;;;;7404915;19;19930;-72
2023/04/07 11:52:49;;;;;;;9.20;6.20;;;13.00;99.90;;;;;;7404980;19;19918;-72
2023/04/07 11:55:25;;;;;;;8.55;6.28;;;13.10;99.90;;;;;;7400150;19;19922;-73
2023/04/07 11:57:54;;;;;;;10.50;6.60;;;13.00;99.90;;;;;;7402970;19;20256;-73
2023/04/07 12:00:23;;;;;;;10.27;6.75;;;13.00;99.90;;;;;;7404931;19;19974;-73
2023/04/07 12:02:52;;;;;;;11.20;6.55;;;12.90;99.90;;;;;;7401456;19;19927;-72
2023/04/07 12:05:21;;;;;;;11.63;6.93;;;13.00;99.90;;;;;;7399997;19;19919;-73
2023/04/07 12:07:56;;;;;;;9.88;7.10;;;13.20;99.90;;;;;;7397908;19;19945;-73
2023/04/07 12:10:28;;;;;;;10.90;7.05;;;13.20;99.90;;;;;;7390962;19;19915;-73
2023/04/07 12:12:57;;;;;;;9.00;6.53;;;13.20;99.90;;;;;;7400980;19;19922;-73
2023/04/07 12:15:26;;;;;;;12.45;7.53;;;13.10;99.90;;;;;;7398692;19;20012;-73
2023/04/07 12:17:55;;;;;;;11.32;7.50;;;13.10;99.90;;;;;;7401167;19;20360;-72
2023/04/07 12:20:24;;;;;;;10.95;7.07;;;13.00;99.90;;;;;;7400051;19;19921;-73
2023/04/07 12:22:53;;;;;;;10.68;7.78;;;12.90;99.90;;;;;;7400400;19;19938;-72
2023/04/07 12:25:22;;;;;;;11.68;7.30;;;13.10;99.90;;;;;;7399942;19;19918;-73
2023/04/07 12:27:54;;;;;;;10.48;6.90;;;13.00;99.90;;;;;;7398672;19;19929;-72
2023/04/07 12:30:23;;;;;;;12.52;7.65;;;13.10;99.90;;;;;;7400511;19;19997;-71
2023/04/07 12:32:52;;;;;;;12.27;7.30;;;13.00;99.90;;;;;;7400004;19;19953;-71
2023/04/07 12:35:21;;;;;;;12.27;7.50;;;13.00;99.90;;;;;;7401269;19;19926;-72
2023/04/07 12:37:51;;;;;;;10.80;7.43;;;12.80;99.90;;;;;;7399952;19;19950;-71
2023/04/07 12:40:21;;;;;;;12.23;8.05;;;12.90;99.90;;;;;;7398446;19;19934;-71
2023/04/07 12:42:53;;;;;;;11.88;7.38;;;12.90;99.90;;;;;;7398777;19;19952;-71
2023/04/07 12:45:22;;;;;;;;;;;13.20;99.90;;;;;;7402743;19;19926;-71
2023/04/07 12:47:51;;;;;;;13.52;7.60;;;13.10;99.90;;;;;;7393358;19;19934;-71
2023/04/07 12:50:20;;;;;;;11.65;7.22;;;13.10;99.90;;;;;;7389771;19;20264;-72
2023/04/07 12:52:50;;;;;;;12.23;7.75;;;13.30;99.90;;;;;;7390571;19;19926;-71
2023/04/07 12:55:19;;;;;;;9.88;6.53;;;13.40;99.90;;;;;;7391259;19;19922;-72
2023/04/07 12:57:48;;;;;;;13.95;7.53;;;13.40;99.90;;;;;;7388042;19;19982;-72
2023/04/07 13:00:20;;;;;;;13.07;7.70;;;13.30;99.90;;;;;;7393499;19;19922;-71
2023/04/07 13:02:49;;;;;;;13.23;7.40;;;13.50;99.90;;;;;;7390761;19;20291;-71
2023/04/07 13:05:18;;;;;;;12.55;7.70;;;14.90;99.90;;;;;;7393409;19;19926;-71
2023/04/07 13:07:47;;;;;;;12.52;7.20;;;14.00;99.90;;;;;;7393236;19;20337;-71
2023/04/07 13:10:16;;;;;;;10.73;7.28;;;14.20;99.90;;;;;;7388769;19;19938;-71
2023/04/07 13:12:45;;;;;;;10.98;7.07;;;14.30;99.90;;;;;;7385762;19;19919;-73